x

South Bermuda - 300 Nm Sse Of Bermuda (41049) Wave Buoy

9:50pm - Wed 22nd Nov 2017 All times are UTC.

  • Sig Wave height 9.2ft
  • Swell Direction
  • Peak Period 8s
  • Average Period 6s
  • Wind
    25mph, 31mph gusts
  • Sea Temp 79°f
  • Air Temp 79°f
  • Sea Pressure 1015.9mb

More Historic Weather Station data

Upgrade to MSW Pro to gain access to the past 30 days of data for over 8000 Wavebouys and Weather Stations around the globe.

Join

Comparision Forecast

View Surf forecast
   
Wed 11/22 9:50pm 9ft 8s 6s 25 31 mph 1015.9mb 79f 79f
8:50pm 10ft 9s 6s 27 34 mph 1015.9mb 79f 79f
7:50pm 10ft 8s 7s 25 29 mph 1016.1mb 79f 79f
6:50pm 10ft 8s 7s 25 29 mph 1017mb 79f 79f
5:50pm 11ft 8s 7s 25 29 mph 1017mb 79f 79f
4:50pm 10.5ft 8s 7s 27 31 mph 1017.6mb 79f 79f
3:50pm 10ft 8s 6s 27 34 mph 1018.4mb 79f 79f
2:50pm 10.5ft 8s 7s 27 31 mph 1018.9mb 79f 79f
1:50pm 10.5ft 8s 7s 27 31 mph 1019.4mb 79f 78f
12:50pm 10ft 8s 6s 25 29 mph 1019.9mb 79f 78f
11:50am 11ft 8s 7s 25 31 mph 1019.9mb 79f 78f
10:50am 10ft 7s 6s 27 31 mph 1019.1mb 79f 78f
9:50am 10ft 8s 6s 27 31 mph 1018.9mb 79f 78f
8:50am 10ft 7s 6s 27 34 mph 1018.6mb 79f 78f
3:50am 9ft 8s 6s 25 29 mph 1020.6mb 79f 77f
2:50am 8.5ft 8s 6s 25 29 mph 1020.9mb 79f 78f
1:50am 8ft 8s 6s 22 27 mph 1021.2mb 79f 78f
12:50am 8ft 8s 6s 22 27 mph 1021.5mb 79f 78f
Tue 11/21 11:50pm 7.5ft 7s 6s 22 29 mph 1021.5mb 79f 77f
10:50pm 8ft 7s 6s 22 29 mph 1021.2mb 79f 77f
9:50pm 8ft 7s 6s 22 27 mph 1020.8mb 79f 76f
8:50pm 7ft 7s 6s 20 22 mph 1020.6mb 79f 76f
7:50pm 7ft 7s 5s 18 22 mph 1020.3mb 79f 76f
6:50pm 7.5ft 7s 6s 20 25 mph 1020.1mb 79f 77f
5:50pm 7ft 7s 6s 20 25 mph 1020.1mb 79f 77f
4:50pm 7ft 8s 6s 22 25 mph 1020.5mb 79f 77f
3:50pm 6ft 10s 6s 20 25 mph 1021.4mb 79f 76f
2:50pm 6ft 7s 5s 20 22 mph 1021.6mb 79f 77f
1:50pm 6ft 6s 5s 20 25 mph 1021.4mb 79f 77f
12:50pm 6ft 7s 5s 22 25 mph 1020.6mb 79f 77f
11:50am 5.5ft 11s 5s 18 20 mph 1020.4mb 79f 77f
10:50am 5ft 11s 5s 20 22 mph 1019.7mb 79f 76f
9:50am 5ft 5s 5s 22 25 mph 1019mb 79f 75f
8:50am 4.5ft 7s 5s 20 22 mph 1018.7mb 79f 77f
7:50am 4.5ft 6s 5s 18 22 mph 1018.5mb 79f 76f
6:50am 4.5ft 6s 5s 18 20 mph 1018.6mb 79f 76f
5:50am 4ft 6s 5s 18 20 mph 1018.9mb 79f 76f
4:50am 3.5ft 6s 5s 18 20 mph 1019.2mb 79f 76f
3:50am 4ft 6s 5s 18 20 mph 1019.3mb 79f 75f
2:50am 4.5ft 7s 5s 18 20 mph 1019.5mb 79f 75f
1:50am 4.5ft 6s 5s 18 20 mph 1019.5mb 79f 74f
12:50am 4.5ft 8s 5s 20 25 mph 1019mb 79f 74f
Mon 11/20 11:50pm 4.5ft 6s 5s 18 20 mph 1018.8mb 79f 72f
10:50pm 4.5ft 8s 6s 18 27 mph 1018.4mb 79f 73f
9:50pm 4.5ft 6s 6s 9 11 mph 1017.5mb 79f 79f
8:50pm 4.5ft 6s 6s 9 9 mph 1017.2mb 80f 79f
7:50pm 4.5ft 11s 6s 9 11 mph 1016.9mb 80f 80f
6:50pm 4.5ft 10s 6s 11 13 mph 1016.5mb 80f 80f
5:50pm 4.5ft 12s 6s 11 13 mph 1016.7mb 80f 79f
4:50pm 5ft 11s 6s 11 13 mph 1017.1mb 80f 80f
3:50pm 5ft 11s 6s 13 16 mph 1017.5mb 80f 80f
2:50pm 5ft 10s 6s 13 16 mph 1017.8mb 79f 79f
1:50pm 5ft 11s 6s 13 16 mph 1017.8mb 79f 79f
12:50pm 5ft 11s 6s 13 16 mph 1017.3mb 79f 79f
11:50am 5ft 11s 6s 13 16 mph 1016.7mb 79f 79f
10:50am 5ft 11s 6s 11 13 mph 1016.3mb 79f 79f
9:50am 6ft 11s 7s 13 16 mph 1015.7mb 79f 78f
8:50am 5.5ft 11s 6s 13 16 mph 1015.5mb 79f 78f
7:50am 5.5ft 9s 6s 13 16 mph 1015.6mb 79f 78f
6:50am 6ft 10s 6s 13 18 mph 1015.9mb 79f 78f
5:50am 6ft 9s 6s 16 20 mph 1016mb 79f 78f
4:50am 6ft 11s 6s 13 18 mph 1016.2mb 79f 78f
3:50am 6ft 9s 6s 18 20 mph 1016.2mb 79f 78f
2:50am 6ft 10s 6s 22 29 mph 1016.3mb 79f 75f
1:50am 6ft 9s 6s 16 20 mph 1016.3mb 79f 78f
12:50am 6ft 9s 6s 18 22 mph 1016mb 79f 78f
Sun 11/19 11:50pm 6ft 10s 6s 18 20 mph 1015.7mb 79f 78f
10:50pm 6.5ft 10s 6s 22 27 mph 1015.2mb 79f 76f
9:50pm 6.5ft 10s 6s 18 20 mph 1015.1mb 79f 78f
8:50pm 7ft 10s 7s 18 20 mph 1014.8mb 80f 78f
7:50pm 7.5ft 11s 7s 16 20 mph 1014.6mb 80f 78f
6:50pm 7ft 9s 7s 16 20 mph 1014.6mb 80f 78f
5:50pm 7ft 10s 6s 16 20 mph 1014.9mb 80f 78f
4:50pm 8ft 11s 7s 18 20 mph 1015.4mb 80f 77f
3:50pm 8ft 11s 7s 18 20 mph 1016.1mb 80f 77f
2:50pm 8ft 11s 7s 18 20 mph 1016.7mb 79f 78f
1:50pm 8ft 11s 7s 18 20 mph 1016.9mb 79f 77f
12:50pm 8.5ft 11s 7s 18 20 mph 1016.4mb 79f 77f
11:50am 8ft 11s 7s 18 22 mph 1015.8mb 79f 77f
10:50am 7.5ft 11s 6s 18 22 mph 1015.1mb 80f 76f
9:50am 8ft 11s 7s 20 22 mph 1014.5mb 80f 76f
8:50am 8ft 10s 7s 20 25 mph 1014.3mb 80f 76f
7:50am 9ft 10s 7s 22 25 mph 1013.9mb 80f 76f
6:50am 8ft 11s 7s 18 22 mph 1014.5mb 80f 76f
5:50am 8.5ft 10s 7s 20 25 mph 1014.9mb 80f 76f
4:50am 9ft 10s 7s 20 22 mph 1015.1mb 80f 76f
3:50am 9ft 9s 6s 20 25 mph 1015.5mb 80f 76f
2:50am 9ft 9s 6s 20 25 mph 1015.3mb 80f 76f
1:50am 7.5ft 8s 6s 22 27 mph 1015.2mb 80f 76f
12:50am 8ft 8s 6s 22 27 mph 1014.8mb 80f 76f
Sat 11/18 11:50pm 8ft 8s 6s 20 25 mph 1014.5mb 80f 74f